sensor_id;sensor_type;location;lat;lon;timestamp;pressure;altitude;pressure_sealevel;temperature;humidity
54918;BME280;40818;50.562;7.454;2022-09-04T06:00:11;97873.59;;;13.08;100.00
54918;BME280;40818;50.562;7.454;2022-09-04T06:05:34;97888.44;;;13.19;100.00
54918;BME280;40818;50.562;7.454;2022-09-04T06:10:48;97888.34;;;13.31;100.00
54918;BME280;40818;50.562;7.454;2022-09-04T06:16:09;97885.47;;;13.47;100.00
54918;BME280;40818;50.562;7.454;2022-09-04T06:27:16;97909.94;;;13.69;100.00
54918;BME280;40818;50.562;7.454;2022-09-04T06:32:50;97913.66;;;13.89;100.00
54918;BME280;40818;50.562;7.454;2022-09-04T06:38:00;97924.22;;;14.10;100.00
54918;BME280;40818;50.562;7.454;2022-09-04T06:43:17;97918.31;;;14.20;100.00
54918;BME280;40818;50.562;7.454;2022-09-04T06:48:38;97932.44;;;14.28;100.00
54918;BME280;40818;50.562;7.454;2022-09-04T06:53:53;97930.16;;;14.46;100.00
54918;BME280;40818;50.562;7.454;2022-09-04T06:59:16;97933.47;;;14.48;100.00
54918;BME280;40818;50.562;7.454;2022-09-04T07:04:50;97941.19;;;14.50;100.00
54918;BME280;40818;50.562;7.454;2022-09-04T07:10:02;97949.75;;;14.52;100.00
54918;BME280;40818;50.562;7.454;2022-09-04T07:15:36;97952.13;;;14.66;100.00
54918;BME280;40818;50.562;7.454;2022-09-04T07:20:54;97955.47;;;14.68;100.00
54918;BME280;40818;50.562;7.454;2022-09-04T07:26:10;97964.00;;;14.71;100.00
54918;BME280;40818;50.562;7.454;2022-09-04T07:31:22;97963.84;;;15.06;100.00
54918;BME280;40818;50.562;7.454;2022-09-04T07:36:37;97960.28;;;14.96;100.00
54918;BME280;40818;50.562;7.454;2022-09-04T07:41:50;97965.16;;;15.00;100.00
54918;BME280;40818;50.562;7.454;2022-09-04T07:47:01;97982.81;;;15.08;100.00
54918;BME280;40818;50.562;7.454;2022-09-04T07:52:27;97987.38;;;15.39;100.00
54918;BME280;40818;50.562;7.454;2022-09-04T07:57:54;97999.03;;;15.34;100.00
54918;BME280;40818;50.562;7.454;2022-09-04T08:03:25;98006.72;;;15.47;100.00
54918;BME280;40818;50.562;7.454;2022-09-04T08:08:51;98009.34;;;15.47;100.00
54918;BME280;40818;50.562;7.454;2022-09-04T08:14:25;98011.59;;;15.52;100.00
54918;BME280;40818;50.562;7.454;2022-09-04T08:19:40;98017.66;;;15.52;100.00
54918;BME280;40818;50.562;7.454;2022-09-04T08:25:07;98028.88;;;15.76;100.00
54918;BME280;40818;50.562;7.454;2022-09-04T08:30:19;98030.72;;;15.85;100.00
54918;BME280;40818;50.562;7.454;2022-09-04T08:35:26;98033.94;;;15.89;100.00
54918;BME280;40818;50.562;7.454;2022-09-04T08:41:14;98031.06;;;16.13;100.00
54918;BME280;40818;50.562;7.454;2022-09-04T08:46:43;98037.91;;;16.56;100.00
54918;BME280;40818;50.562;7.454;2022-09-04T08:57:50;98054.16;;;17.12;100.00
54918;BME280;40818;50.562;7.454;2022-09-04T09:03:23;98053.09;;;17.24;100.00
54918;BME280;40818;50.562;7.454;2022-09-04T09:14:27;98049.19;;;17.98;100.00
54918;BME280;40818;50.562;7.454;2022-09-04T09:19:43;98049.84;;;18.20;100.00
54918;BME280;40818;50.562;7.454;2022-09-04T09:25:04;98050.34;;;18.43;100.00
54918;BME280;40818;50.562;7.454;2022-09-04T09:30:15;98050.72;;;18.48;100.00
54918;BME280;40818;50.562;7.454;2022-09-04T09:35:52;98051.41;;;18.60;100.00
54918;BME280;40818;50.562;7.454;2022-09-04T09:46:56;98052.41;;;18.87;100.00
54918;BME280;40818;50.562;7.454;2022-09-04T09:52:29;98059.09;;;19.09;100.00
54918;BME280;40818;50.562;7.454;2022-09-04T09:58:01;98052.47;;;19.33;100.00
54918;BME280;40818;50.562;7.454;2022-09-04T10:03:39;98048.13;;;19.59;100.00
54918;BME280;40818;50.562;7.454;2022-09-04T10:09:16;98052.81;;;20.02;100.00
54918;BME280;40818;50.562;7.454;2022-09-04T10:14:47;98052.03;;;20.09;100.00
54918;BME280;40818;50.562;7.454;2022-09-04T10:25:48;98056.59;;;20.70;100.00
54918;BME280;40818;50.562;7.454;2022-09-04T10:31:26;98055.06;;;20.93;100.00
54918;BME280;40818;50.562;7.454;2022-09-04T10:36:41;98047.75;;;21.30;100.00
54918;BME280;40818;50.562;7.454;2022-09-04T10:42:00;98050.16;;;21.58;100.00
54918;BME280;40818;50.562;7.454;2022-09-04T10:47:14;98041.56;;;21.80;100.00
54918;BME280;40818;50.562;7.454;2022-09-04T10:58:21;98039.72;;;22.47;94.17
54918;BME280;40818;50.562;7.454;2022-09-04T11:03:52;98044.78;;;22.73;94.12
54918;BME280;40818;50.562;7.454;2022-09-04T11:14:38;98031.03;;;22.78;83.49
54918;BME280;40818;50.562;7.454;2022-09-04T11:20:12;98030.81;;;23.35;76.50
54918;BME280;40818;50.562;7.454;2022-09-04T11:25:53;98034.34;;;23.74;85.85
54918;BME280;40818;50.562;7.454;2022-09-04T11:37:23;98033.41;;;25.98;79.02
54918;BME280;40818;50.562;7.454;2022-09-04T11:42:38;98040.47;;;26.34;65.29
54918;BME280;40818;50.562;7.454;2022-09-04T11:48:04;98041.44;;;26.89;72.37
54918;BME280;40818;50.562;7.454;2022-09-04T11:53:32;98039.13;;;27.35;70.72
54918;BME280;40818;50.562;7.454;2022-09-04T11:59:02;98040.47;;;27.79;60.71
54918;BME280;40818;50.562;7.454;2022-09-04T12:04:25;98048.28;;;27.87;61.96
54918;BME280;40818;50.562;7.454;2022-09-04T12:09:48;98042.91;;;27.40;51.74
54918;BME280;40818;50.562;7.454;2022-09-04T12:15:14;98043.41;;;26.74;56.05
54918;BME280;40818;50.562;7.454;2022-09-04T12:20:49;98039.09;;;26.73;53.06
54918;BME280;40818;50.562;7.454;2022-09-04T12:26:15;98041.00;;;26.86;52.12
54918;BME280;40818;50.562;7.454;2022-09-04T12:31:38;98028.56;;;27.75;52.88
54918;BME280;40818;50.562;7.454;2022-09-04T12:37:28;98028.97;;;28.52;53.42
54918;BME280;40818;50.562;7.454;2022-09-04T12:42:44;98029.88;;;29.50;48.29
54918;BME280;40818;50.562;7.454;2022-09-04T12:47:56;98032.97;;;30.29;48.69
54918;BME280;40818;50.562;7.454;2022-09-04T12:53:38;98026.13;;;30.15;43.46
54918;BME280;40818;50.562;7.454;2022-09-04T12:59:00;98031.88;;;30.62;40.43
54918;BME280;40818;50.562;7.454;2022-09-04T13:04:18;98036.31;;;31.24;44.47
54918;BME280;40818;50.562;7.454;2022-09-04T13:09:33;98043.63;;;31.47;43.63
54918;BME280;40818;50.562;7.454;2022-09-04T13:14:59;98040.31;;;31.34;41.61
54918;BME280;40818;50.562;7.454;2022-09-04T13:20:14;98033.63;;;31.24;44.16
54918;BME280;40818;50.562;7.454;2022-09-04T13:25:29;98038.09;;;31.12;43.52
54918;BME280;40818;50.562;7.454;2022-09-04T13:30:38;98041.34;;;31.32;44.56
54918;BME280;40818;50.562;7.454;2022-09-04T13:36:01;98038.31;;;31.59;42.63
54918;BME280;40818;50.562;7.454;2022-09-04T13:41:32;98036.00;;;31.63;42.24
54918;BME280;40818;50.562;7.454;2022-09-04T13:46:43;98039.84;;;31.37;43.24
54918;BME280;40818;50.562;7.454;2022-09-04T13:51:54;98038.63;;;31.51;43.92
54918;BME280;40818;50.562;7.454;2022-09-04T13:57:07;98038.34;;;31.41;40.80
54918;BME280;40818;50.562;7.454;2022-09-04T14:02:13;98042.88;;;31.10;42.40
54918;BME280;40818;50.562;7.454;2022-09-04T14:07:19;98040.34;;;30.78;42.80
54918;BME280;40818;50.562;7.454;2022-09-04T14:18:10;98043.06;;;29.77;44.77
54918;BME280;40818;50.562;7.454;2022-09-04T14:23:20;98043.22;;;29.50;46.73
54918;BME280;40818;50.562;7.454;2022-09-04T14:28:35;98057.56;;;29.17;45.70
54918;BME280;40818;50.562;7.454;2022-09-04T14:33:51;98044.94;;;28.86;48.22
54918;BME280;40818;50.562;7.454;2022-09-04T14:39:06;98035.19;;;28.19;44.83
54918;BME280;40818;50.562;7.454;2022-09-04T14:44:25;98042.97;;;27.94;48.47
54918;BME280;40818;50.562;7.454;2022-09-04T14:49:42;98038.06;;;27.98;44.16
54918;BME280;40818;50.562;7.454;2022-09-04T14:54:51;98036.75;;;27.53;46.98
54918;BME280;40818;50.562;7.454;2022-09-04T15:00:02;98034.00;;;27.27;47.52
54918;BME280;40818;50.562;7.454;2022-09-04T15:05:15;98041.66;;;27.36;49.82
54918;BME280;40818;50.562;7.454;2022-09-04T15:10:23;98035.63;;;27.28;46.16
54918;BME280;40818;50.562;7.454;2022-09-04T15:15:30;98024.19;;;27.34;47.22
54918;BME280;40818;50.562;7.454;2022-09-04T15:20:38;98026.91;;;27.47;47.54
54918;BME280;40818;50.562;7.454;2022-09-04T15:25:52;98026.13;;;27.60;45.40
54918;BME280;40818;50.562;7.454;2022-09-04T15:31:02;98021.56;;;27.47;45.89
54918;BME280;40818;50.562;7.454;2022-09-04T15:36:15;98024.13;;;27.20;45.56
54918;BME280;40818;50.562;7.454;2022-09-04T15:41:25;98029.94;;;26.82;42.54
54918;BME280;40818;50.562;7.454;2022-09-04T15:46:40;98020.88;;;26.70;45.99
54918;BME280;40818;50.562;7.454;2022-09-04T15:51:52;98034.47;;;26.53;46.84
54918;BME280;40818;50.562;7.454;2022-09-04T15:57:01;98023.56;;;26.48;44.94
54918;BME280;40818;50.562;7.454;2022-09-04T16:02:18;98024.13;;;26.37;46.61
54918;BME280;40818;50.562;7.454;2022-09-04T16:07:33;98020.13;;;25.98;46.14
54918;BME280;40818;50.562;7.454;2022-09-04T16:12:48;98015.47;;;25.20;48.63
54918;BME280;40818;50.562;7.454;2022-09-04T16:17:53;98018.75;;;25.59;49.78
54918;BME280;40818;50.562;7.454;2022-09-04T16:23:01;98017.56;;;25.61;49.26
54918;BME280;40818;50.562;7.454;2022-09-04T16:28:10;98025.69;;;24.86;51.38
54918;BME280;40818;50.562;7.454;2022-09-04T16:33:21;98027.75;;;24.31;53.75
54918;BME280;40818;50.562;7.454;2022-09-04T16:38:31;98030.66;;;24.22;53.81
54918;BME280;40818;50.562;7.454;2022-09-04T16:44:04;98027.81;;;24.08;53.56
54918;BME280;40818;50.562;7.454;2022-09-04T16:49:14;98022.66;;;23.92;53.70
54918;BME280;40818;50.562;7.454;2022-09-04T16:54:30;98021.94;;;23.75;54.52
54918;BME280;40818;50.562;7.454;2022-09-04T16:59:40;98027.56;;;23.48;56.65
54918;BME280;40818;50.562;7.454;2022-09-04T17:04:49;98014.53;;;23.15;57.60
54918;BME280;40818;50.562;7.454;2022-09-04T17:10:04;98016.19;;;23.08;57.39
54918;BME280;40818;50.562;7.454;2022-09-04T17:15:17;98017.75;;;22.94;57.71
54918;BME280;40818;50.562;7.454;2022-09-04T17:20:26;98015.69;;;23.05;57.42
54918;BME280;40818;50.562;7.454;2022-09-04T17:25:44;98012.63;;;22.93;57.78
54918;BME280;40818;50.562;7.454;2022-09-04T17:30:51;98010.38;;;22.81;58.35
54918;BME280;40818;50.562;7.454;2022-09-04T17:36:00;98014.63;;;22.82;58.29
54918;BME280;40818;50.562;7.454;2022-09-04T17:41:12;98016.31;;;22.75;58.19
54918;BME280;40818;50.562;7.454;2022-09-04T17:46:24;98011.88;;;22.76;58.25
54918;BME280;40818;50.562;7.454;2022-09-04T17:51:32;98011.38;;;22.72;58.23
54918;BME280;40818;50.562;7.454;2022-09-04T17:56:43;98014.38;;;22.69;60.01
54918;BME280;40818;50.562;7.454;2022-09-04T18:01:56;98019.34;;;22.64;60.55
54918;BME280;40818;50.562;7.454;2022-09-04T18:07:10;98017.06;;;22.53;59.83
54918;BME280;40818;50.562;7.454;2022-09-04T18:12:23;98029.31;;;22.29;59.89
54918;BME280;40818;50.562;7.454;2022-09-04T18:17:44;98040.25;;;21.93;65.74
54918;BME280;40818;50.562;7.454;2022-09-04T18:28:40;98054.03;;;21.37;67.78
54918;BME280;40818;50.562;7.454;2022-09-04T18:33:54;98062.56;;;21.23;68.44
54918;BME280;40818;50.562;7.454;2022-09-04T18:39:07;98063.34;;;21.07;69.39
54918;BME280;40818;50.562;7.454;2022-09-04T18:44:19;98076.19;;;21.02;69.32
54918;BME280;40818;50.562;7.454;2022-09-04T18:49:24;98076.31;;;20.92;70.07
54918;BME280;40818;50.562;7.454;2022-09-04T18:54:32;98073.94;;;20.80;70.95
54918;BME280;40818;50.562;7.454;2022-09-04T18:59:44;98080.50;;;20.68;72.44
54918;BME280;40818;50.562;7.454;2022-09-04T19:04:49;98090.28;;;20.58;73.20
54918;BME280;40818;50.562;7.454;2022-09-04T19:10:07;98084.28;;;20.48;73.68
54918;BME280;40818;50.562;7.454;2022-09-04T19:15:30;98097.41;;;20.39;74.60
54918;BME280;40818;50.562;7.454;2022-09-04T19:20:40;98094.19;;;20.27;75.13
54918;BME280;40818;50.562;7.454;2022-09-04T19:25:47;98102.31;;;20.16;75.71
54918;BME280;40818;50.562;7.454;2022-09-04T19:30:56;98103.22;;;20.07;76.90
54918;BME280;40818;50.562;7.454;2022-09-04T19:36:07;98093.47;;;19.99;77.06
54918;BME280;40818;50.562;7.454;2022-09-04T19:41:19;98093.38;;;19.91;77.33
54918;BME280;40818;50.562;7.454;2022-09-04T19:46:37;98096.63;;;19.85;78.48
54918;BME280;40818;50.562;7.454;2022-09-04T19:51:55;98097.50;;;19.75;78.66
54918;BME280;40818;50.562;7.454;2022-09-04T19:57:14;98103.97;;;19.63;80.19
54918;BME280;40818;50.562;7.454;2022-09-04T20:02:32;98097.25;;;19.51;81.58
54918;BME280;40818;50.562;7.454;2022-09-04T20:07:42;98105.66;;;19.36;82.47
54918;BME280;40818;50.562;7.454;2022-09-04T20:12:52;98104.59;;;19.29;82.21
54918;BME280;40818;50.562;7.454;2022-09-04T20:18:06;98105.34;;;19.39;80.52
54918;BME280;40818;50.562;7.454;2022-09-04T20:23:15;98118.59;;;19.48;79.43
54918;BME280;40818;50.562;7.454;2022-09-04T20:28:30;98106.09;;;19.50;78.97
54918;BME280;40818;50.562;7.454;2022-09-04T20:33:40;98104.03;;;19.53;79.30
54918;BME280;40818;50.562;7.454;2022-09-04T20:38:51;98114.56;;;19.53;79.03
54918;BME280;40818;50.562;7.454;2022-09-04T20:44:01;98111.38;;;19.50;78.73
54918;BME280;40818;50.562;7.454;2022-09-04T20:49:18;98121.91;;;19.50;79.52
54918;BME280;40818;50.562;7.454;2022-09-04T20:54:37;98128.31;;;19.47;78.86
54918;BME280;40818;50.562;7.454;2022-09-04T20:59:55;98123.31;;;19.44;78.72
54918;BME280;40818;50.562;7.454;2022-09-04T21:05:35;98125.75;;;19.37;78.04
54918;BME280;40818;50.562;7.454;2022-09-04T21:10:52;98134.22;;;19.31;78.44
54918;BME280;40818;50.562;7.454;2022-09-04T21:16:09;98133.81;;;19.26;78.33
54918;BME280;40818;50.562;7.454;2022-09-04T21:21:42;98127.63;;;19.17;78.72
54918;BME280;40818;50.562;7.454;2022-09-04T21:27:04;98130.41;;;19.16;78.39
54918;BME280;40818;50.562;7.454;2022-09-04T21:32:43;98133.19;;;19.14;78.69
54918;BME280;40818;50.562;7.454;2022-09-04T21:37:56;98137.88;;;19.10;78.95
54918;BME280;40818;50.562;7.454;2022-09-04T21:48:58;98140.72;;;18.99;78.83
54918;BME280;40818;50.562;7.454;2022-09-04T21:54:30;98152.63;;;18.93;79.37
54918;BME280;40818;50.562;7.454;2022-09-04T21:59:52;98151.41;;;18.88;79.58
54918;BME280;40818;50.562;7.454;2022-09-04T22:05:07;98153.44;;;18.84;79.50
54918;BME280;40818;50.562;7.454;2022-09-04T22:10:31;98146.16;;;18.78;79.51
54918;BME280;40818;50.562;7.454;2022-09-04T22:16:00;98152.09;;;18.70;79.74
54918;BME280;40818;50.562;7.454;2022-09-04T22:21:17;98158.91;;;18.63;80.05
54918;BME280;40818;50.562;7.454;2022-09-04T22:37:53;98163.09;;;18.46;81.31
54918;BME280;40818;50.562;7.454;2022-09-04T22:43:12;98155.78;;;18.40;81.40
54918;BME280;40818;50.562;7.454;2022-09-04T22:48:35;98157.97;;;18.25;82.37
54918;BME280;40818;50.562;7.454;2022-09-04T22:54:01;98157.69;;;18.28;81.75
54918;BME280;40818;50.562;7.454;2022-09-04T23:04:57;98168.78;;;18.22;81.56
54918;BME280;40818;50.562;7.454;2022-09-04T23:10:29;98166.69;;;18.16;82.30
54918;BME280;40818;50.562;7.454;2022-09-04T23:15:44;98165.72;;;18.17;82.14
54918;BME280;40818;50.562;7.454;2022-09-04T23:21:04;98166.81;;;18.14;82.73
54918;BME280;40818;50.562;7.454;2022-09-04T23:31:59;98175.13;;;18.19;82.74
54918;BME280;40818;50.562;7.454;2022-09-04T23:37:26;98175.94;;;18.20;82.62
